createdAt,value
2023-02-14T00:00:03.282Z,3.33
2023-02-14T00:01:10.629Z,3.32
2023-02-14T00:02:12.389Z,3.31
2023-02-14T00:03:14.752Z,3.31
2023-02-14T00:04:18.126Z,3.31
2023-02-14T00:05:20.052Z,3.30
2023-02-14T00:06:21.916Z,3.29
2023-02-14T00:07:23.940Z,3.28
2023-02-14T00:08:25.807Z,3.27
2023-02-14T00:09:27.549Z,3.26
2023-02-14T00:10:29.811Z,3.25
2023-02-14T00:11:31.816Z,3.24
2023-02-14T00:12:33.654Z,3.23
2023-02-14T00:13:35.463Z,3.22
2023-02-14T00:14:55.908Z,3.22
2023-02-14T00:15:57.876Z,3.21
2023-02-14T00:17:00.307Z,3.21
2023-02-14T00:18:03.539Z,3.21
2023-02-14T00:19:05.361Z,3.20
2023-02-14T00:20:07.767Z,3.20
2023-02-14T00:21:09.789Z,3.21
2023-02-14T00:22:11.598Z,3.22
2023-02-14T00:23:13.401Z,3.22
2023-02-14T00:24:18.338Z,3.21
2023-02-14T00:25:20.133Z,3.21
2023-02-14T00:26:21.957Z,3.21
2023-02-14T00:27:24.022Z,3.22
2023-02-14T00:28:26.018Z,3.23
2023-02-14T00:29:30.352Z,3.23
2023-02-14T00:30:32.339Z,3.23
2023-02-14T00:31:35.287Z,3.23
2023-02-14T00:32:40.593Z,3.23
2023-02-14T00:33:42.436Z,3.23
2023-02-14T00:34:44.288Z,3.24
2023-02-14T00:35:46.141Z,3.24
2023-02-14T00:36:48.385Z,3.25
2023-02-14T00:37:50.151Z,3.25
2023-02-14T00:38:52.436Z,3.25
2023-02-14T00:39:54.278Z,3.26
2023-02-14T00:40:56.140Z,3.26
2023-02-14T00:41:58.006Z,3.27
2023-02-14T00:42:59.769Z,3.28
2023-02-14T00:44:02.055Z,3.29
2023-02-14T00:45:03.986Z,3.29
2023-02-14T00:46:05.855Z,3.29
2023-02-14T00:47:08.269Z,3.30
2023-02-14T00:48:10.196Z,3.30
2023-02-14T00:49:12.157Z,3.29
2023-02-14T00:50:13.972Z,3.29
2023-02-14T00:51:18.368Z,3.29
2023-02-14T00:52:20.247Z,3.28
2023-02-14T00:53:22.018Z,3.26
2023-02-14T00:54:23.868Z,3.25
2023-02-14T00:55:25.677Z,3.24
2023-02-14T00:56:27.803Z,3.22
2023-02-14T00:57:29.606Z,3.20
2023-02-14T00:58:31.937Z,3.19
2023-02-14T00:59:33.806Z,3.17
2023-02-14T01:00:35.722Z,3.15
2023-02-14T01:01:38.313Z,3.14
2023-02-14T01:02:40.309Z,3.11
2023-02-14T01:03:42.208Z,3.09
2023-02-14T01:04:44.238Z,3.08
2023-02-14T01:05:47.826Z,3.06
2023-02-14T01:06:49.724Z,3.05
2023-02-14T01:07:51.497Z,3.03
2023-02-14T01:08:53.415Z,3.02
2023-02-14T01:09:55.228Z,3.00
2023-02-14T01:10:57.548Z,2.97
2023-02-14T01:11:59.466Z,2.96
2023-02-14T01:13:01.296Z,2.95
2023-02-14T01:14:03.094Z,2.94
2023-02-14T01:15:05.173Z,2.92
2023-02-14T01:16:12.800Z,2.90
2023-02-14T01:17:14.605Z,2.90
2023-02-14T01:18:18.758Z,2.88
2023-02-14T01:19:20.782Z,2.87
2023-02-14T01:20:22.639Z,2.86
2023-02-14T01:21:32.962Z,2.85
2023-02-14T01:22:38.360Z,2.84
2023-02-14T01:23:40.653Z,2.83
2023-02-14T01:24:42.484Z,2.82
2023-02-14T01:25:44.280Z,2.82
2023-02-14T01:26:46.064Z,2.81
2023-02-14T01:27:47.849Z,2.81
2023-02-14T01:28:49.857Z,2.80
2023-02-14T01:29:51.818Z,2.80
2023-02-14T01:30:53.681Z,2.79
2023-02-14T01:31:55.539Z,2.79
2023-02-14T01:32:57.315Z,2.79
2023-02-14T01:33:59.656Z,2.78
2023-02-14T01:35:01.457Z,2.77
2023-02-14T01:36:03.716Z,2.76
2023-02-14T01:37:05.581Z,2.76
2023-02-14T01:38:07.586Z,2.75
2023-02-14T01:39:14.849Z,2.75
2023-02-14T01:40:17.197Z,2.75
2023-02-14T01:41:19.136Z,2.75
2023-02-14T01:42:20.986Z,2.75
2023-02-14T01:43:22.855Z,2.76
2023-02-14T01:44:37.193Z,2.79
2023-02-14T01:45:39.039Z,2.82
2023-02-14T01:46:42.384Z,2.84
2023-02-14T01:47:47.171Z,2.86
2023-02-14T01:48:49.505Z,2.87
2023-02-14T01:49:58.274Z,2.87
2023-02-14T01:51:00.357Z,2.89
2023-02-14T01:52:20.077Z,2.90
2023-02-14T01:53:27.052Z,2.92
2023-02-14T01:54:29.555Z,2.92
2023-02-14T01:55:34.289Z,2.93
2023-02-14T01:56:43.942Z,2.93
2023-02-14T01:57:59.908Z,2.93
2023-02-14T01:59:03.493Z,2.97
2023-02-14T02:00:25.229Z,2.99
2023-02-14T02:01:28.302Z,3.01
2023-02-14T02:02:30.287Z,3.01
2023-02-14T02:03:38.564Z,3.00
2023-02-14T02:04:45.032Z,2.99
2023-02-14T02:05:54.989Z,2.98
2023-02-14T02:07:09.136Z,2.97
2023-02-14T02:08:11.879Z,2.95
2023-02-14T02:09:21.827Z,2.93
2023-02-14T02:10:24.369Z,2.91
2023-02-14T02:11:26.734Z,2.89
2023-02-14T02:12:30.801Z,2.87
2023-02-14T02:13:33.283Z,2.85
2023-02-14T02:14:35.357Z,2.84
2023-02-14T02:15:52.476Z,2.82
2023-02-14T02:16:57.329Z,2.79
2023-02-14T02:18:10.534Z,2.78
2023-02-14T02:19:14.924Z,2.77
2023-02-14T02:20:22.683Z,2.76
2023-02-14T02:21:56.344Z,2.75
2023-02-14T02:23:09.977Z,2.72
2023-02-14T02:24:24.624Z,2.71
2023-02-14T02:26:07.855Z,2.70
2023-02-14T02:27:26.043Z,2.70
2023-02-14T02:28:52.616Z,2.69
2023-02-14T02:30:00.451Z,2.68
2023-02-14T02:31:37.886Z,2.68
2023-02-14T02:32:58.474Z,2.66
2023-02-14T02:34:15.296Z,2.64
2023-02-14T02:35:35.250Z,2.62
2023-02-14T02:36:55.424Z,2.60
2023-02-14T02:38:03.231Z,2.59
2023-02-14T02:39:28.589Z,2.58
2023-02-14T02:40:52.093Z,2.57
2023-02-14T02:42:23.103Z,2.56
2023-02-14T02:43:35.855Z,2.56
2023-02-14T02:44:43.052Z,2.57
2023-02-14T02:46:20.771Z,2.58
2023-02-14T02:47:25.217Z,2.60
2023-02-14T02:48:45.344Z,2.61
2023-02-14T02:50:05.417Z,2.62
2023-02-14T02:51:31.981Z,2.62
2023-02-14T02:53:03.850Z,2.61
2023-02-14T02:54:14.833Z,2.59
2023-02-14T02:55:26.408Z,2.58
2023-02-14T02:56:46.252Z,2.56
2023-02-14T02:57:50.227Z,2.55
2023-02-14T02:58:56.836Z,2.53
2023-02-14T02:59:59.817Z,2.52
2023-02-14T03:01:07.226Z,2.51
2023-02-14T03:02:15.121Z,2.49
2023-02-14T03:03:36.564Z,2.49
2023-02-14T03:04:56.256Z,2.49
2023-02-14T03:05:58.140Z,2.49
2023-02-14T03:07:00.054Z,2.48
2023-02-14T03:08:06.487Z,2.47
2023-02-14T03:09:20.512Z,2.46
2023-02-14T03:10:26.075Z,2.44
2023-02-14T03:11:28.150Z,2.43
2023-02-14T03:12:33.017Z,2.42
2023-02-14T03:13:59.496Z,2.40
2023-02-14T03:15:36.447Z,2.39
2023-02-14T03:17:00.052Z,2.37
2023-02-14T03:18:33.880Z,2.36
2023-02-14T03:20:09.294Z,2.34
2023-02-14T03:21:41.222Z,2.32
2023-02-14T03:22:43.012Z,2.30
2023-02-14T03:23:56.409Z,2.29
2023-02-14T03:25:11.970Z,2.28
2023-02-14T03:26:38.175Z,2.27
2023-02-14T03:27:55.832Z,2.27
2023-02-14T03:29:10.194Z,2.25
2023-02-14T03:30:20.666Z,2.24
2023-02-14T03:31:57.875Z,2.23
2023-02-14T03:33:05.376Z,2.21
2023-02-14T03:34:24.164Z,2.21
2023-02-14T03:35:32.817Z,2.20
2023-02-14T03:36:39.981Z,2.18
2023-02-14T03:37:53.889Z,2.17
2023-02-14T03:39:22.185Z,2.15
2023-02-14T03:40:38.822Z,2.15
2023-02-14T03:41:49.411Z,2.15
2023-02-14T03:42:56.025Z,2.16
2023-02-14T03:44:01.486Z,2.16
2023-02-14T03:45:06.591Z,2.17
2023-02-14T03:46:17.777Z,2.17
2023-02-14T03:47:24.233Z,2.17
2023-02-14T03:48:29.127Z,2.16
2023-02-14T03:49:35.101Z,2.15
2023-02-14T03:50:39.060Z,2.15
2023-02-14T03:51:44.373Z,2.15
2023-02-14T03:52:49.968Z,2.17
2023-02-14T03:53:54.954Z,2.19
2023-02-14T03:54:58.514Z,2.20
2023-02-14T03:56:27.109Z,2.20
2023-02-14T03:57:43.171Z,2.18
2023-02-14T03:58:57.691Z,2.16
2023-02-14T03:59:59.789Z,2.15
2023-02-14T04:01:12.557Z,2.14
2023-02-14T04:02:22.101Z,2.13
2023-02-14T04:03:25.692Z,2.11
2023-02-14T04:04:31.413Z,2.09
2023-02-14T04:05:33.496Z,2.07
2023-02-14T04:06:35.652Z,2.06
2023-02-14T04:07:46.191Z,2.04
2023-02-14T04:08:48.157Z,2.02
2023-02-14T04:09:50.274Z,2.00
2023-02-14T04:10:53.045Z,1.98
2023-02-14T04:11:55.022Z,1.97
2023-02-14T04:12:56.820Z,1.96
2023-02-14T04:13:58.611Z,1.96
2023-02-14T04:15:00.452Z,1.96
2023-02-14T04:16:06.385Z,1.95
2023-02-14T04:17:27.160Z,1.93
2023-02-14T04:18:47.525Z,1.92
2023-02-14T04:19:49.386Z,1.91
2023-02-14T04:20:51.190Z,1.90
2023-02-14T04:21:53.444Z,1.90
2023-02-14T04:22:55.265Z,1.90
2023-02-14T04:23:57.087Z,1.90
2023-02-14T04:24:58.817Z,1.90
2023-02-14T04:26:00.721Z,1.91
2023-02-14T04:27:11.799Z,1.91
2023-02-14T04:28:14.206Z,1.91
2023-02-14T04:29:16.006Z,1.91
2023-02-14T04:30:18.410Z,1.91
2023-02-14T04:31:20.355Z,1.93
2023-02-14T04:32:22.814Z,1.95
2023-02-14T04:33:24.631Z,1.97
2023-02-14T04:34:26.434Z,1.97
2023-02-14T04:35:28.156Z,1.97
2023-02-14T04:36:30.316Z,1.96
2023-02-14T04:37:32.106Z,1.94
2023-02-14T04:38:34.003Z,1.92
2023-02-14T04:39:36.522Z,1.91
2023-02-14T04:40:38.366Z,1.89
2023-02-14T04:41:40.171Z,1.88
2023-02-14T04:42:42.014Z,1.88
2023-02-14T04:43:43.866Z,1.86
2023-02-14T04:44:45.698Z,1.85
2023-02-14T04:45:47.834Z,1.85
2023-02-14T04:46:49.818Z,1.84
2023-02-14T04:47:51.791Z,1.83
2023-02-14T04:48:53.581Z,1.82
2023-02-14T04:49:55.714Z,1.80
2023-02-14T04:50:57.667Z,1.79
2023-02-14T04:51:59.638Z,1.79
2023-02-14T04:53:01.424Z,1.78
2023-02-14T04:54:03.276Z,1.77
2023-02-14T04:55:05.900Z,1.75
2023-02-14T04:56:08.124Z,1.74
2023-02-14T04:57:10.069Z,1.73
2023-02-14T04:58:11.853Z,1.71
2023-02-14T04:59:14.757Z,1.69
2023-02-14T05:00:16.954Z,1.67
2023-02-14T05:01:18.821Z,1.65
2023-02-14T05:02:20.728Z,1.63
2023-02-14T05:03:22.673Z,1.62
2023-02-14T05:04:24.877Z,1.60
2023-02-14T05:05:26.723Z,1.58
2023-02-14T05:06:29.033Z,1.57
2023-02-14T05:07:30.797Z,1.56
2023-02-14T05:08:32.868Z,1.55
2023-02-14T05:09:35.059Z,1.55
2023-02-14T05:10:36.861Z,1.53
2023-02-14T05:11:38.650Z,1.51
2023-02-14T05:12:40.420Z,1.51
2023-02-14T05:13:42.268Z,1.50
2023-02-14T05:14:44.108Z,1.50
2023-02-14T05:15:46.303Z,1.51
2023-02-14T05:16:48.148Z,1.52
2023-02-14T05:17:51.484Z,1.53
2023-02-14T05:18:53.246Z,1.53
2023-02-14T05:19:55.157Z,1.53
2023-02-14T05:20:57.542Z,1.51
2023-02-14T05:21:59.575Z,1.50
2023-02-14T05:23:03.437Z,1.49
2023-02-14T05:24:05.669Z,1.48
2023-02-14T05:25:07.966Z,1.47
2023-02-14T05:26:09.849Z,1.46
2023-02-14T05:27:12.003Z,1.45
2023-02-14T05:28:13.887Z,1.44
2023-02-14T05:29:16.013Z,1.43
2023-02-14T05:30:18.340Z,1.41
2023-02-14T05:31:20.343Z,1.40
2023-02-14T05:32:22.334Z,1.39
2023-02-14T05:33:24.977Z,1.38
2023-02-14T05:34:26.793Z,1.37
2023-02-14T05:35:28.598Z,1.36
2023-02-14T05:36:30.746Z,1.35
2023-02-14T05:37:32.623Z,1.33
2023-02-14T05:38:34.980Z,1.32
2023-02-14T05:39:36.853Z,1.31
2023-02-14T05:40:38.923Z,1.29
2023-02-14T05:41:41.423Z,1.28
2023-02-14T05:42:43.638Z,1.27
2023-02-14T05:43:45.510Z,1.25
2023-02-14T05:44:48.740Z,1.25
2023-02-14T05:45:50.581Z,1.25
2023-02-14T05:46:52.636Z,1.25
2023-02-14T05:47:54.488Z,1.26
2023-02-14T05:48:56.450Z,1.26
2023-02-14T05:49:58.396Z,1.26
2023-02-14T05:51:13.100Z,1.25
2023-02-14T05:52:14.849Z,1.25
2023-02-14T05:53:16.697Z,1.24
2023-02-14T05:54:18.521Z,1.24
2023-02-14T05:55:20.452Z,1.23
2023-02-14T05:56:22.666Z,1.23
2023-02-14T05:57:25.633Z,1.22
2023-02-14T05:58:27.625Z,1.23
2023-02-14T05:59:29.434Z,1.23
2023-02-14T06:00:31.460Z,1.24
2023-02-14T06:01:33.314Z,1.24
2023-02-14T06:02:35.235Z,1.25
2023-02-14T06:03:37.120Z,1.25
2023-02-14T06:04:39.096Z,1.25
2023-02-14T06:05:40.929Z,1.26
2023-02-14T06:06:42.712Z,1.26
2023-02-14T06:07:50.646Z,1.27
2023-02-14T06:08:52.450Z,1.27
2023-02-14T06:09:54.263Z,1.28
2023-02-14T06:10:56.140Z,1.30
2023-02-14T06:11:58.913Z,1.31
2023-02-14T06:13:00.853Z,1.31
2023-02-14T06:14:02.727Z,1.32
2023-02-14T06:15:04.853Z,1.32
2023-02-14T06:16:06.720Z,1.31
2023-02-14T06:17:11.815Z,1.31
2023-02-14T06:18:13.594Z,1.30
2023-02-14T06:19:15.476Z,1.30
2023-02-14T06:20:17.289Z,1.29
2023-02-14T06:21:19.106Z,1.29
2023-02-14T06:22:21.504Z,1.29
2023-02-14T06:23:23.316Z,1.30
2023-02-14T06:24:25.129Z,1.30
2023-02-14T06:25:27.016Z,1.30
2023-02-14T06:26:28.972Z,1.31
2023-02-14T06:27:31.242Z,1.31
2023-02-14T06:28:33.143Z,1.32
2023-02-14T06:29:34.932Z,1.32
2023-02-14T06:30:36.926Z,1.32
2023-02-14T06:31:38.976Z,1.32
2023-02-14T06:32:40.875Z,1.32
2023-02-14T06:33:42.830Z,1.32
2023-02-14T06:34:45.745Z,1.34
2023-02-14T06:35:47.633Z,1.35
2023-02-14T06:36:49.519Z,1.36
2023-02-14T06:37:51.498Z,1.38
2023-02-14T06:38:53.502Z,1.39
2023-02-14T06:39:55.801Z,1.40
2023-02-14T06:41:06.118Z,1.44
2023-02-14T06:42:08.092Z,1.48
2023-02-14T06:43:09.907Z,1.52
2023-02-14T06:44:11.743Z,1.54
2023-02-14T06:45:13.614Z,1.57
2023-02-14T06:46:16.832Z,1.60
2023-02-14T06:47:19.065Z,1.64
2023-02-14T06:48:20.987Z,1.70
2023-02-14T06:49:23.972Z,1.75
2023-02-14T06:50:25.807Z,1.79
2023-02-14T06:51:27.640Z,1.83
2023-02-14T06:52:29.545Z,1.87
2023-02-14T06:53:31.409Z,1.91
2023-02-14T06:54:33.255Z,1.94
2023-02-14T06:55:35.159Z,1.96
2023-02-14T06:56:37.009Z,1.98
2023-02-14T06:57:40.222Z,2.02
2023-02-14T06:58:42.529Z,2.05
2023-02-14T06:59:44.539Z,2.07
2023-02-14T07:00:47.738Z,2.08
2023-02-14T07:01:50.457Z,2.09
2023-02-14T07:02:53.011Z,2.12
2023-02-14T07:03:54.966Z,2.15
2023-02-14T07:04:56.764Z,2.17
2023-02-14T07:05:58.601Z,2.19
2023-02-14T07:07:01.500Z,2.21
2023-02-14T07:08:03.638Z,2.23
2023-02-14T07:09:06.360Z,2.26
2023-02-14T07:10:08.469Z,2.29
2023-02-14T07:11:10.390Z,2.32
2023-02-14T07:12:12.190Z,2.36
2023-02-14T07:13:14.436Z,2.42
2023-02-14T07:14:16.277Z,2.48
2023-02-14T07:15:18.092Z,2.52
2023-02-14T07:16:19.959Z,2.55
2023-02-14T07:17:22.137Z,2.58
2023-02-14T07:18:24.059Z,2.61
2023-02-14T07:19:26.034Z,2.65
2023-02-14T07:20:28.115Z,2.69
2023-02-14T07:21:29.919Z,2.73
2023-02-14T07:22:31.752Z,2.75
2023-02-14T07:23:33.577Z,2.79
2023-02-14T07:24:35.506Z,2.82
2023-02-14T07:25:40.765Z,2.85
2023-02-14T07:26:42.753Z,2.88
2023-02-14T07:27:44.797Z,2.90
2023-02-14T07:28:49.197Z,2.93
2023-02-14T07:29:51.127Z,2.97
2023-02-14T07:30:53.141Z,3.00
2023-02-14T07:31:55.377Z,3.03
2023-02-14T07:32:58.183Z,3.06
2023-02-14T07:34:02.492Z,3.08
2023-02-14T07:35:04.734Z,3.11
2023-02-14T07:36:08.020Z,3.13
2023-02-14T07:37:10.200Z,3.16
2023-02-14T07:38:12.086Z,3.19
2023-02-14T07:39:13.908Z,3.21
2023-02-14T07:40:16.064Z,3.23
2023-02-14T07:41:18.096Z,3.26
2023-02-14T07:42:19.900Z,3.29
2023-02-14T07:43:24.310Z,3.32
2023-02-14T07:44:27.012Z,3.34
2023-02-14T07:45:28.883Z,3.36
2023-02-14T07:46:37.267Z,3.38
2023-02-14T07:47:39.557Z,3.40
2023-02-14T07:48:41.533Z,3.42
2023-02-14T07:49:43.733Z,3.45
2023-02-14T07:50:45.733Z,3.49
2023-02-14T07:51:48.260Z,3.51
2023-02-14T07:52:50.240Z,3.53
2023-02-14T07:53:52.070Z,3.56
2023-02-14T07:54:54.042Z,3.59
2023-02-14T07:55:58.589Z,3.63
2023-02-14T07:57:01.045Z,3.66
2023-02-14T07:58:03.562Z,3.71
2023-02-14T07:59:09.659Z,3.77
2023-02-14T08:00:17.316Z,3.82
2023-02-14T08:01:21.250Z,3.89
2023-02-14T08:02:23.257Z,3.93
2023-02-14T08:03:25.204Z,3.99
2023-02-14T08:04:27.139Z,4.03
2023-02-14T08:05:28.921Z,4.07
2023-02-14T08:06:30.677Z,4.09
2023-02-14T08:07:32.435Z,4.13
2023-02-14T08:08:34.301Z,4.18
2023-02-14T08:09:36.287Z,4.22
2023-02-14T08:10:38.188Z,4.25
2023-02-14T08:11:58.553Z,4.28
2023-02-14T08:13:00.540Z,4.32
2023-02-14T08:14:03.664Z,4.35
2023-02-14T08:15:24.198Z,4.37
2023-02-14T08:16:26.221Z,4.40
2023-02-14T08:17:28.047Z,4.43
2023-02-14T08:18:32.668Z,4.46
2023-02-14T08:19:34.638Z,4.48
2023-02-14T08:20:36.656Z,4.50
2023-02-14T08:21:38.605Z,4.53
2023-02-14T08:22:40.510Z,4.56
2023-02-14T08:23:42.353Z,4.59
2023-02-14T08:24:45.066Z,4.62
2023-02-14T08:25:49.034Z,4.66
2023-02-14T08:26:51.436Z,4.69
2023-02-14T08:27:55.345Z,4.73
2023-02-14T08:28:57.641Z,4.77
2023-02-14T08:29:59.856Z,4.81
2023-02-14T08:31:03.491Z,4.84
2023-02-14T08:32:05.746Z,4.88
2023-02-14T08:33:08.039Z,4.90
2023-02-14T08:34:11.521Z,4.93
2023-02-14T08:35:15.556Z,4.96
2023-02-14T08:36:18.067Z,5.00
2023-02-14T08:37:20.585Z,5.03
2023-02-14T08:38:22.801Z,5.07
2023-02-14T08:39:24.965Z,5.11
2023-02-14T08:40:29.850Z,5.16
2023-02-14T08:41:35.127Z,5.23
2023-02-14T08:42:37.079Z,5.27
2023-02-14T08:43:39.192Z,5.31
2023-02-14T08:44:41.070Z,5.36
2023-02-14T08:46:18.912Z,5.40
2023-02-14T08:47:24.507Z,5.46
2023-02-14T08:48:29.814Z,5.50
2023-02-14T08:49:32.602Z,5.53
2023-02-14T08:50:35.099Z,5.56
2023-02-14T08:51:37.089Z,5.61
2023-02-14T08:52:43.841Z,5.68
2023-02-14T08:53:46.436Z,5.76
2023-02-14T08:54:48.335Z,5.85
2023-02-14T08:55:50.175Z,5.93
2023-02-14T08:56:52.032Z,5.99
2023-02-14T08:57:57.888Z,6.05
2023-02-14T08:58:59.737Z,6.12
2023-02-14T09:00:02.029Z,6.17
2023-02-14T09:01:11.313Z,6.21
2023-02-14T09:02:13.800Z,6.25
2023-02-14T09:03:15.685Z,6.29
2023-02-14T09:04:17.583Z,6.32
2023-02-14T09:05:21.000Z,6.36
2023-02-14T09:06:22.805Z,6.39
2023-02-14T09:07:24.746Z,6.43
2023-02-14T09:08:26.646Z,6.46
2023-02-14T09:09:28.669Z,6.49
2023-02-14T09:10:30.860Z,6.53
2023-02-14T09:11:33.570Z,6.56
2023-02-14T09:12:39.208Z,6.59
2023-02-14T09:13:42.554Z,6.62
2023-02-14T09:14:45.117Z,6.65
2023-02-14T09:15:46.941Z,6.68
2023-02-14T09:16:48.748Z,6.73
2023-02-14T09:17:51.924Z,6.79
2023-02-14T09:18:54.667Z,6.83
2023-02-14T09:19:56.931Z,6.88
2023-02-14T09:20:59.245Z,6.94
2023-02-14T09:22:03.854Z,6.98
2023-02-14T09:23:05.805Z,7.00
2023-02-14T09:24:07.582Z,7.02
2023-02-14T09:25:09.580Z,7.05
2023-02-14T09:26:13.974Z,7.08
2023-02-14T09:27:16.146Z,7.12
2023-02-14T09:28:18.707Z,7.16
2023-02-14T09:29:20.775Z,7.19
2023-02-14T09:30:22.722Z,7.23
2023-02-14T09:31:25.664Z,7.27
2023-02-14T09:32:29.200Z,7.34
2023-02-14T09:33:31.268Z,7.39
2023-02-14T09:34:34.154Z,7.42
2023-02-14T09:35:35.996Z,7.45
2023-02-14T09:36:56.963Z,7.52
2023-02-14T09:38:18.064Z,7.63
2023-02-14T09:39:20.207Z,7.69
2023-02-14T09:40:22.891Z,7.72
2023-02-14T09:41:30.542Z,7.76
2023-02-14T09:42:43.784Z,7.80
2023-02-14T09:43:53.028Z,7.86
2023-02-14T09:45:01.970Z,7.92
2023-02-14T09:46:04.917Z,7.96
2023-02-14T09:47:30.170Z,8.01
2023-02-14T09:48:36.476Z,8.11
2023-02-14T09:49:40.052Z,8.18
2023-02-14T09:50:48.254Z,8.22
2023-02-14T09:51:52.273Z,8.29
2023-02-14T09:52:58.196Z,8.35
2023-02-14T09:54:10.199Z,8.39
2023-02-14T09:55:17.317Z,8.44
2023-02-14T09:56:51.583Z,8.47
2023-02-14T09:57:57.129Z,8.53
2023-02-14T09:59:15.713Z,8.58
2023-02-14T10:00:25.221Z,8.62
2023-02-14T10:01:35.776Z,8.64
2023-02-14T10:02:58.678Z,8.71
2023-02-14T10:04:15.494Z,8.76
2023-02-14T10:05:23.191Z,8.80
2023-02-14T10:07:02.458Z,8.86
2023-02-14T10:08:42.824Z,8.90
2023-02-14T10:10:07.065Z,8.97
2023-02-14T10:11:12.525Z,9.01
2023-02-14T10:12:22.844Z,9.05
2023-02-14T10:13:43.276Z,9.11
2023-02-14T10:14:45.646Z,9.14
2023-02-14T10:16:20.067Z,9.17
2023-02-14T10:17:37.147Z,9.22
2023-02-14T10:19:06.823Z,9.26
2023-02-14T10:20:23.864Z,9.30
2023-02-14T10:21:42.056Z,9.37
2023-02-14T10:23:10.960Z,9.43
2023-02-14T10:24:33.962Z,9.51
2023-02-14T10:25:45.388Z,9.55
2023-02-14T10:26:48.761Z,9.58
2023-02-14T10:27:53.367Z,9.62
2023-02-14T10:28:56.010Z,9.64
2023-02-14T10:30:04.808Z,9.68
2023-02-14T10:31:27.538Z,9.70
2023-02-14T10:32:38.362Z,9.72
2023-02-14T10:33:42.685Z,9.74
2023-02-14T10:34:51.950Z,9.78
2023-02-14T10:36:04.193Z,9.81
2023-02-14T10:37:15.210Z,9.84
2023-02-14T10:38:35.121Z,9.87
2023-02-14T10:39:46.558Z,9.91
2023-02-14T10:40:57.440Z,9.94
2023-02-14T10:42:42.697Z,10.00
2023-02-14T10:43:50.347Z,10.08
2023-02-14T10:45:09.694Z,10.10
2023-02-14T10:46:38.903Z,10.12
2023-02-14T10:47:57.449Z,10.17
2023-02-14T10:49:08.657Z,10.22
2023-02-14T10:50:10.369Z,10.25
2023-02-14T10:51:47.162Z,10.27
2023-02-14T10:52:59.403Z,10.32
2023-02-14T10:54:21.774Z,10.35
2023-02-14T10:55:59.395Z,10.39
2023-02-14T10:57:17.672Z,10.42
2023-02-14T10:58:21.677Z,10.43
2023-02-14T10:59:41.256Z,10.47
2023-02-14T11:00:58.364Z,10.51
2023-02-14T11:02:01.693Z,10.52
2023-02-14T11:03:07.523Z,10.52
2023-02-14T11:04:12.788Z,10.53
2023-02-14T11:05:28.235Z,10.54
2023-02-14T11:06:31.098Z,10.56
2023-02-14T11:07:33.528Z,10.58
2023-02-14T11:08:37.850Z,10.62
2023-02-14T11:09:40.054Z,10.65
2023-02-14T11:10:44.448Z,10.70
2023-02-14T11:11:54.190Z,10.76
2023-02-14T11:12:59.095Z,10.81
2023-02-14T11:15:36.329Z,10.87
2023-02-14T11:16:38.410Z,10.89
2023-02-14T11:17:41.037Z,10.89
2023-02-14T11:18:43.069Z,10.90
2023-02-14T11:20:09.656Z,10.90
2023-02-14T11:21:21.195Z,10.92
2023-02-14T11:22:30.640Z,10.96
2023-02-14T11:23:40.084Z,10.97
2023-02-14T11:24:42.719Z,10.98
2023-02-14T11:25:55.574Z,10.99
2023-02-14T11:27:00.985Z,11.00
2023-02-14T11:28:05.642Z,11.01
2023-02-14T11:29:19.219Z,11.03
2023-02-14T11:30:28.201Z,11.03
2023-02-14T11:31:35.619Z,11.03
2023-02-14T11:32:39.959Z,11.02
2023-02-14T11:33:44.422Z,11.04
2023-02-14T11:34:52.868Z,11.06
2023-02-14T11:35:55.147Z,11.09
2023-02-14T11:36:57.084Z,11.11
2023-02-14T11:37:59.230Z,11.13
2023-02-14T11:39:14.019Z,11.15
2023-02-14T11:40:28.061Z,11.16
2023-02-14T11:41:49.877Z,11.17
2023-02-14T11:42:57.815Z,11.18
2023-02-14T11:44:22.334Z,11.19
2023-02-14T11:45:28.140Z,11.21
2023-02-14T11:46:36.142Z,11.22
2023-02-14T11:47:43.022Z,11.22
2023-02-14T11:49:01.507Z,11.23
2023-02-14T11:50:06.825Z,11.25
2023-02-14T11:51:15.704Z,11.25
2023-02-14T11:52:19.650Z,11.24
2023-02-14T11:53:24.906Z,11.24
2023-02-14T11:54:39.704Z,11.24
2023-02-14T11:55:41.607Z,11.25
2023-02-14T11:56:51.902Z,11.25
2023-02-14T11:57:55.171Z,11.25
2023-02-14T11:59:00.212Z,11.27
2023-02-14T12:00:05.476Z,11.25
2023-02-14T12:01:11.976Z,11.24
2023-02-14T12:02:14.021Z,11.24
2023-02-14T12:03:19.536Z,11.23
2023-02-14T12:04:41.375Z,11.23
2023-02-14T12:05:50.585Z,11.23
2023-02-14T12:06:52.634Z,11.23
2023-02-14T12:07:58.027Z,11.23
2023-02-14T12:09:32.058Z,11.22
2023-02-14T12:10:35.667Z,11.24
2023-02-14T12:11:37.866Z,11.26
2023-02-14T12:13:08.958Z,11.27
2023-02-14T12:14:24.796Z,11.27
2023-02-14T12:15:43.834Z,11.28
2023-02-14T12:17:15.334Z,11.29
2023-02-14T12:18:38.010Z,11.31
2023-02-14T12:20:14.476Z,11.32
2023-02-14T12:21:19.167Z,11.34
2023-02-14T12:22:29.285Z,11.35
2023-02-14T12:23:46.243Z,11.36
2023-02-14T12:25:01.933Z,11.36
2023-02-14T12:26:30.849Z,11.38
2023-02-14T12:27:48.666Z,11.41
2023-02-14T12:29:18.121Z,11.43
2023-02-14T12:30:25.841Z,11.46
2023-02-14T12:31:27.895Z,11.48
2023-02-14T12:32:31.714Z,11.59
2023-02-14T12:33:33.665Z,11.64
2023-02-14T12:34:36.148Z,11.65
2023-02-14T12:36:02.377Z,11.64
2023-02-14T12:37:11.063Z,11.64
2023-02-14T12:38:39.354Z,11.65
2023-02-14T12:40:09.274Z,11.67
2023-02-14T12:41:16.771Z,11.69
2023-02-14T12:42:47.398Z,11.72
2023-02-14T12:43:53.644Z,11.75
2023-02-14T12:45:33.291Z,11.78
2023-02-14T12:46:59.315Z,11.81
2023-02-14T12:48:29.853Z,11.79
2023-02-14T12:49:40.950Z,11.79
2023-02-14T12:50:54.710Z,11.79
2023-02-14T12:52:12.148Z,11.78
2023-02-14T12:53:35.071Z,11.80
2023-02-14T12:54:40.047Z,11.82
2023-02-14T12:55:57.115Z,11.84
2023-02-14T12:57:17.689Z,11.85
2023-02-14T12:58:44.930Z,11.85
2023-02-14T13:00:09.721Z,11.88
2023-02-14T13:01:24.759Z,11.91
2023-02-14T13:02:49.797Z,11.89
2023-02-14T13:04:17.313Z,11.89
2023-02-14T13:05:35.932Z,11.90
2023-02-14T13:06:41.543Z,11.87
2023-02-14T13:08:08.101Z,11.87
2023-02-14T13:09:40.489Z,11.87
2023-02-14T13:11:25.966Z,11.89
2023-02-14T13:12:38.710Z,11.90
2023-02-14T13:14:03.771Z,11.88
2023-02-14T13:15:39.574Z,11.86
2023-02-14T13:17:06.816Z,11.86
2023-02-14T13:18:36.849Z,11.86
2023-02-14T13:19:53.402Z,11.87
2023-02-14T13:21:03.768Z,11.88
2023-02-14T13:22:08.739Z,11.86
2023-02-14T13:23:19.537Z,11.84
2023-02-14T13:24:24.410Z,11.79
2023-02-14T13:25:33.577Z,11.80
2023-02-14T13:26:39.071Z,11.85
2023-02-14T13:27:41.717Z,11.90
2023-02-14T13:28:52.199Z,11.95
2023-02-14T13:29:58.068Z,12.00
2023-02-14T13:31:01.793Z,12.04
2023-02-14T13:32:04.948Z,12.06
2023-02-14T13:33:23.461Z,12.08
2023-02-14T13:34:42.660Z,12.09
2023-02-14T13:35:45.147Z,12.12
2023-02-14T13:36:47.628Z,12.16
2023-02-14T13:37:57.768Z,12.19
2023-02-14T13:39:00.628Z,12.18
2023-02-14T13:40:07.790Z,12.18
2023-02-14T13:41:10.770Z,12.19
2023-02-14T13:42:13.466Z,12.20
2023-02-14T13:43:47.566Z,12.22
2023-02-14T13:44:50.739Z,12.25
2023-02-14T13:45:55.540Z,12.26
2023-02-14T13:46:57.773Z,12.27
2023-02-14T13:48:15.061Z,12.30
2023-02-14T13:49:23.273Z,12.32
2023-02-14T13:50:25.574Z,12.35
2023-02-14T13:51:48.712Z,12.36
2023-02-14T13:52:50.656Z,12.39
2023-02-14T13:53:52.624Z,12.41
2023-02-14T13:55:01.958Z,12.44
2023-02-14T13:56:17.475Z,12.48
2023-02-14T13:57:36.555Z,12.51
2023-02-14T13:58:49.526Z,12.52
2023-02-14T14:00:19.204Z,12.53
2023-02-14T14:01:35.729Z,12.58
2023-02-14T14:02:48.864Z,12.58
2023-02-14T14:03:57.744Z,12.59
2023-02-14T14:04:59.740Z,12.58
2023-02-14T14:06:06.599Z,12.58
2023-02-14T14:07:20.981Z,12.60
2023-02-14T14:08:23.380Z,12.64
2023-02-14T14:09:43.994Z,12.65
2023-02-14T14:10:56.205Z,12.62
2023-02-14T14:11:58.133Z,12.58
2023-02-14T14:12:59.902Z,12.56
2023-02-14T14:14:21.554Z,12.55
2023-02-14T14:15:23.325Z,12.55
2023-02-14T14:16:28.317Z,12.53
2023-02-14T14:17:31.788Z,12.53
2023-02-14T14:18:43.057Z,12.52
2023-02-14T14:19:47.102Z,12.49
2023-02-14T14:20:49.453Z,12.47
2023-02-14T14:22:10.353Z,12.46
2023-02-14T14:23:32.192Z,12.43
2023-02-14T14:24:36.116Z,12.38
2023-02-14T14:25:41.022Z,12.35
2023-02-14T14:26:45.945Z,12.33
2023-02-14T14:27:47.972Z,12.30
2023-02-14T14:28:49.853Z,12.29
2023-02-14T14:29:58.550Z,12.27
2023-02-14T14:31:00.876Z,12.24
2023-02-14T14:32:11.120Z,12.22
2023-02-14T14:33:23.982Z,12.21
2023-02-14T14:34:28.280Z,12.19
2023-02-14T14:35:30.037Z,12.14
2023-02-14T14:36:31.969Z,12.10
2023-02-14T14:37:37.359Z,12.07
2023-02-14T14:38:51.452Z,12.04
2023-02-14T14:40:01.385Z,12.03
2023-02-14T14:41:03.440Z,12.03
2023-02-14T14:42:15.341Z,12.02
2023-02-14T14:43:35.861Z,12.01
2023-02-14T14:44:46.661Z,12.01
2023-02-14T14:45:51.594Z,12.00
2023-02-14T14:46:53.563Z,11.98
2023-02-14T14:47:58.204Z,11.97
2023-02-14T14:49:00.210Z,11.96
2023-02-14T14:50:10.236Z,11.96
2023-02-14T14:51:27.056Z,11.95